ALA502 UGTB-UWLL
Flight info
| Callsign | ALA502 |
|---|---|
| Flight time | N/A |
| Altitude | 38000 |
| Route | LAPTO N82 NIRGA/K0815F370 R807 UROBO P135 DAFOS T789 NEPNI NEPNI1E |
| Aircraft | A320/M-SDE3FGHIRWY/LB1 |
Departure
| Time | N/A |
|---|---|
| Airport | Tbilisi International Airport (UGTB) |
Arrival
| Time | 2026-04-30 18:46 |
|---|---|
| Airport | Ulyanovsk Baratayevka Airport (UWLL) |
| Time | Latitude | Longitude | Altitude | Speed | Heading |
|---|---|---|---|---|---|
| 2026-04-30 17:39 | 47.52317 | 44.32526 | 37235 ft | 461 kts | 355° |
| 2026-04-30 17:42 | 47.84386 | 44.33704 | 37227 ft | 461 kts | 355° |
| 2026-04-30 17:42 | 47.94013 | 44.34648 | 37205 ft | 470 kts | 7° |
| 2026-04-30 17:43 | 48.00307 | 44.37546 | 37198 ft | 474 kts | 13° |
| 2026-04-30 17:44 | 48.19169 | 44.46635 | 37227 ft | 475 kts | 13° |
| 2026-04-30 17:47 | 48.47473 | 44.60459 | 37199 ft | 475 kts | 13° |
| 2026-04-30 17:48 | 48.69495 | 44.71307 | 37194 ft | 476 kts | 14° |
| 2026-04-30 17:50 | 48.94791 | 44.83197 | 37180 ft | 475 kts | 10° |
| 2026-04-30 17:52 | 49.13923 | 44.91136 | 37192 ft | 475 kts | 12° |
| 2026-04-30 17:54 | 49.42531 | 45.03344 | 37190 ft | 474 kts | 11° |
| 2026-04-30 17:56 | 49.67937 | 45.14322 | 37173 ft | 474 kts | 12° |
| 2026-04-30 17:58 | 49.86950 | 45.22652 | 37172 ft | 475 kts | 12° |
| 2026-04-30 18:00 | 50.11393 | 45.32644 | 37158 ft | 473 kts | 7° |
| 2026-04-30 18:01 | 50.27506 | 45.37900 | 37156 ft | 474 kts | 9° |
| 2026-04-30 18:02 | 50.46838 | 45.44578 | 37155 ft | 474 kts | 9° |
| 2026-04-30 18:04 | 50.66180 | 45.51288 | 37153 ft | 474 kts | 9° |
| 2026-04-30 18:06 | 50.91984 | 45.60416 | 37140 ft | 476 kts | 10° |
| 2026-04-30 18:07 | 51.04802 | 45.65684 | 37140 ft | 479 kts | 22° |
| 2026-04-30 18:08 | 51.13865 | 45.72466 | 37128 ft | 480 kts | 23° |
| 2026-04-30 18:10 | 51.38084 | 45.90719 | 37125 ft | 482 kts | 23° |
| 2026-04-30 18:11 | 51.59201 | 46.06872 | 37112 ft | 481 kts | 25° |
| 2026-04-30 18:13 | 51.74043 | 46.19246 | 37101 ft | 480 kts | 26° |
| 2026-04-30 18:14 | 51.88907 | 46.31568 | 37104 ft | 480 kts | 26° |
| 2026-04-30 18:15 | 52.06698 | 46.46462 | 37112 ft | 479 kts | 26° |
| 2026-04-30 18:16 | 52.18526 | 46.56433 | 37108 ft | 479 kts | 26° |
| 2026-04-30 18:17 | 52.24439 | 46.61442 | 37096 ft | 479 kts | 27° |
| 2026-04-30 18:18 | 52.33312 | 46.68993 | 37092 ft | 480 kts | 27° |
| 2026-04-30 18:18 | 52.39268 | 46.74086 | 37091 ft | 480 kts | 27° |
| 2026-04-30 18:18 | 52.42225 | 46.76623 | 36863 ft | 480 kts | 27° |
| 2026-04-30 18:19 | 52.45178 | 46.79159 | 36546 ft | 480 kts | 27° |
| 2026-04-30 18:19 | 52.48148 | 46.81713 | 35736 ft | 485 kts | 27° |
| 2026-04-30 18:19 | 52.51149 | 46.84299 | 34869 ft | 490 kts | 27° |
| 2026-04-30 18:19 | 52.54186 | 46.86915 | 34059 ft | 495 kts | 27° |
| 2026-04-30 18:20 | 52.57220 | 46.89529 | 33494 ft | 490 kts | 27° |
| 2026-04-30 18:20 | 52.60184 | 46.92085 | 32905 ft | 485 kts | 27° |
| 2026-04-30 18:20 | 52.63198 | 46.94689 | 32338 ft | 481 kts | 27° |
| 2026-04-30 18:20 | 52.66142 | 46.97239 | 31779 ft | 476 kts | 27° |
| 2026-04-30 18:21 | 52.69058 | 46.99766 | 31212 ft | 472 kts | 28° |
| 2026-04-30 18:21 | 52.71950 | 47.02276 | 30683 ft | 468 kts | 28° |
| 2026-04-30 18:21 | 52.74820 | 47.04777 | 30133 ft | 464 kts | 29° |
| 2026-04-30 18:21 | 52.77662 | 47.07259 | 29539 ft | 460 kts | 29° |
| 2026-04-30 18:22 | 52.80433 | 47.09685 | 29033 ft | 454 kts | 29° |
| 2026-04-30 18:22 | 52.85946 | 47.14515 | 28015 ft | 443 kts | 29° |
| 2026-04-30 18:22 | 52.88660 | 47.16895 | 27527 ft | 438 kts | 29° |
| 2026-04-30 18:23 | 52.91372 | 47.19277 | 27047 ft | 433 kts | 29° |
| 2026-04-30 18:23 | 52.94017 | 47.21604 | 26576 ft | 428 kts | 30° |
| 2026-04-30 18:23 | 52.96635 | 47.23909 | 26129 ft | 424 kts | 30° |
| 2026-04-30 18:23 | 52.99194 | 47.26162 | 25685 ft | 420 kts | 30° |
| 2026-04-30 18:24 | 53.04308 | 47.30673 | 24797 ft | 414 kts | 30° |
| 2026-04-30 18:24 | 53.06834 | 47.32914 | 24362 ft | 411 kts | 30° |
| 2026-04-30 18:24 | 53.09347 | 47.35148 | 23905 ft | 408 kts | 30° |
| 2026-04-30 18:25 | 53.11849 | 47.37372 | 23416 ft | 407 kts | 30° |
| 2026-04-30 18:25 | 53.16828 | 47.41807 | 22500 ft | 400 kts | 30° |
| 2026-04-30 18:25 | 53.19269 | 47.43977 | 22039 ft | 396 kts | 30° |
| 2026-04-30 18:26 | 53.24067 | 47.48254 | 21158 ft | 391 kts | 30° |
| 2026-04-30 18:26 | 53.26454 | 47.50394 | 20710 ft | 389 kts | 30° |
| 2026-04-30 18:26 | 53.28837 | 47.52535 | 20261 ft | 388 kts | 30° |
| 2026-04-30 18:27 | 53.33572 | 47.56787 | 19373 ft | 385 kts | 30° |
| 2026-04-30 18:27 | 53.35927 | 47.58899 | 18938 ft | 383 kts | 30° |
| 2026-04-30 18:28 | 53.40605 | 47.63110 | 18032 ft | 380 kts | 30° |
| 2026-04-30 18:28 | 53.42926 | 47.65210 | 17587 ft | 377 kts | 29° |
| 2026-04-30 18:28 | 53.47508 | 47.69344 | 16758 ft | 371 kts | 27° |
| 2026-04-30 18:29 | 53.49878 | 47.71011 | 16353 ft | 368 kts | 21° |
| 2026-04-30 18:29 | 53.56982 | 47.75686 | 15113 ft | 363 kts | 21° |
| 2026-04-30 18:30 | 53.60865 | 47.78262 | 14428 ft | 359 kts | 21° |
| 2026-04-30 18:30 | 53.66264 | 47.81860 | 13435 ft | 354 kts | 21° |
| 2026-04-30 18:31 | 53.68539 | 47.83378 | 13025 ft | 351 kts | 21° |
| 2026-04-30 18:31 | 53.72836 | 47.87081 | 12181 ft | 344 kts | 31° |
| 2026-04-30 18:32 | 53.76938 | 47.91148 | 11342 ft | 340 kts | 31° |
| 2026-04-30 18:32 | 53.78971 | 47.93167 | 10921 ft | 338 kts | 32° |
| 2026-04-30 18:32 | 53.83003 | 47.97167 | 10201 ft | 331 kts | 32° |
| 2026-04-30 18:33 | 53.84954 | 47.99097 | 10055 ft | 319 kts | 32° |
| 2026-04-30 18:33 | 53.88694 | 48.02807 | 9552 ft | 307 kts | 32° |
| 2026-04-30 18:33 | 53.90526 | 48.04635 | 9179 ft | 304 kts | 32° |
| 2026-04-30 18:34 | 53.92361 | 48.06467 | 8592 ft | 309 kts | 32° |
| 2026-04-30 18:34 | 53.96372 | 48.08739 | 7536 ft | 310 kts | 355° |
| 2026-04-30 18:34 | 53.98425 | 48.07735 | 7019 ft | 307 kts | 330° |
| 2026-04-30 18:35 | 53.99984 | 48.05436 | 6509 ft | 293 kts | 304° |
| 2026-04-30 18:35 | 54.00925 | 48.02446 | 5977 ft | 282 kts | 293° |
| 2026-04-30 18:35 | 54.01708 | 47.99454 | 5446 ft | 272 kts | 293° |
| 2026-04-30 18:36 | 54.03112 | 47.93879 | 5095 ft | 241 kts | 293° |
| 2026-04-30 18:36 | 54.03761 | 47.91261 | 5100 ft | 239 kts | 293° |
| 2026-04-30 18:36 | 54.05047 | 47.86068 | 5101 ft | 238 kts | 293° |
| 2026-04-30 18:37 | 54.05691 | 47.83468 | 5104 ft | 238 kts | 293° |
| 2026-04-30 18:37 | 54.06331 | 47.80879 | 5100 ft | 237 kts | 293° |
| 2026-04-30 18:37 | 54.06972 | 47.78289 | 5103 ft | 238 kts | 293° |
| 2026-04-30 18:37 | 54.07601 | 47.75736 | 4938 ft | 236 kts | 293° |
| 2026-04-30 18:38 | 54.08241 | 47.73170 | 4586 ft | 235 kts | 297° |
| 2026-04-30 18:38 | 54.09242 | 47.71032 | 4250 ft | 230 kts | 324° |
| 2026-04-30 18:38 | 54.10667 | 47.69909 | 3930 ft | 226 kts | 351° |
| 2026-04-30 18:38 | 54.12209 | 47.69988 | 3607 ft | 222 kts | 19° |
| 2026-04-30 18:39 | 54.13463 | 47.71407 | 3282 ft | 218 kts | 53° |
| 2026-04-30 18:39 | 54.13990 | 47.73749 | 3088 ft | 212 kts | 85° |
| 2026-04-30 18:39 | 54.13979 | 47.76248 | 2818 ft | 210 kts | 92° |
| 2026-04-30 18:39 | 54.13871 | 47.78728 | 2522 ft | 209 kts | 92° |
| 2026-04-30 18:40 | 54.13743 | 47.81198 | 2218 ft | 208 kts | 93° |
| 2026-04-30 18:40 | 54.13607 | 47.83641 | 2100 ft | 207 kts | 93° |
| 2026-04-30 18:40 | 54.13464 | 47.86089 | 2100 ft | 210 kts | 93° |
| 2026-04-30 18:40 | 54.13322 | 47.88566 | 2098 ft | 209 kts | 93° |
| 2026-04-30 18:41 | 54.13178 | 47.91027 | 2102 ft | 208 kts | 93° |
| 2026-04-30 18:41 | 54.13033 | 47.93485 | 2102 ft | 209 kts | 93° |
| 2026-04-30 18:41 | 54.12888 | 47.95945 | 2102 ft | 208 kts | 93° |
| 2026-04-30 18:41 | 54.12743 | 47.98401 | 2102 ft | 208 kts | 93° |
| 2026-04-30 18:42 | 54.12799 | 48.00763 | 2099 ft | 195 kts | 69° |
| 2026-04-30 18:42 | 54.14146 | 48.04718 | 2108 ft | 193 kts | 53° |
| 2026-04-30 18:42 | 54.14923 | 48.06586 | 2107 ft | 193 kts | 53° |
| 2026-04-30 18:45 | 54.23480 | 48.18765 | 1069 ft | 136 kts | 31° |
| 2026-04-30 18:45 | 54.24278 | 48.19619 | 880 ft | 135 kts | 32° |
| 2026-04-30 18:45 | 54.25078 | 48.20483 | 701 ft | 136 kts | 31° |
| 2026-04-30 18:46 | 54.25881 | 48.21339 | 527 ft | 136 kts | 31° |
| 2026-04-30 18:46 | 54.26642 | 48.22153 | 433 ft | 116 kts | 32° |
| 2026-04-30 18:46 | 54.27177 | 48.22726 | 419 ft | 66 kts | 32° |
| 2026-04-30 18:46 | 54.27524 | 48.23100 | 417 ft | 44 kts | 33° |
| 2026-04-30 18:47 | 54.27649 | 48.23355 | 408 ft | 28 kts | 75° |
| 2026-04-30 18:47 | 54.27669 | 48.23529 | 404 ft | 1 kts | 77° |
| 2026-04-30 18:47 | 54.27672 | 48.23554 | 402 ft | 4 kts | 77° |
| 2026-04-30 18:47 | 54.27679 | 48.23612 | 402 ft | 6 kts | 80° |
| 2026-04-30 18:48 | 54.27687 | 48.23691 | 398 ft | 7 kts | 82° |
| 2026-04-30 18:48 | 54.27668 | 48.23765 | 396 ft | 6 kts | 121° |
| 2026-04-30 18:48 | 54.27647 | 48.23826 | 398 ft | 5 kts | 121° |
| 2026-04-30 18:48 | 54.27630 | 48.23878 | 400 ft | 7 kts | 111° |
| 2026-04-30 18:49 | 54.27676 | 48.23962 | 398 ft | 8 kts | 31° |
| 2026-04-30 18:49 | 54.27721 | 48.24009 | 398 ft | 7 kts | 32° |
| 2026-04-30 18:49 | 54.27758 | 48.24048 | 394 ft | 6 kts | 31° |
| 2026-04-30 18:49 | 54.27806 | 48.24098 | 398 ft | 10 kts | 31° |
| 2026-04-30 18:50 | 54.27874 | 48.24170 | 398 ft | 12 kts | 32° |
| 2026-04-30 18:50 | 54.27947 | 48.24249 | 397 ft | 14 kts | 32° |
| 2026-04-30 18:50 | 54.28043 | 48.24351 | 390 ft | 19 kts | 32° |
| 2026-04-30 18:50 | 54.28141 | 48.24302 | 386 ft | 15 kts | 304° |
| 2026-04-30 18:51 | 54.28201 | 48.24143 | 385 ft | 16 kts | 302° |
| 2026-04-30 18:51 | 54.28263 | 48.23973 | 387 ft | 17 kts | 302° |
| 2026-04-30 18:51 | 54.28323 | 48.23813 | 387 ft | 10 kts | 303° |
| 2026-04-30 18:51 | 54.28328 | 48.23798 | 386 ft | 0 kts | 303° |
| 2026-04-30 18:52 | 54.28332 | 48.23788 | 386 ft | 4 kts | 303° |
| 2026-04-30 18:52 | 54.28351 | 48.23738 | 385 ft | 5 kts | 303° |
| 2026-04-30 18:52 | 54.28356 | 48.23725 | 384 ft | 0 kts | 303° |
| 2026-04-30 18:53 | 54.28357 | 48.23722 | 384 ft | 1 kts | 303° |
| 2026-04-30 18:53 | 54.28363 | 48.23705 | 384 ft | 3 kts | 303° |
| 2026-04-30 18:53 | 54.28375 | 48.23675 | 384 ft | 3 kts | 303° |
| 2026-04-30 18:53 | 54.28390 | 48.23634 | 383 ft | 5 kts | 302° |
| 2026-04-30 18:54 | 54.28414 | 48.23579 | 381 ft | 6 kts | 321° |
| 2026-04-30 18:54 | 54.28463 | 48.23598 | 378 ft | 8 kts | 18° |
| 2026-04-30 18:54 | 54.28507 | 48.23548 | 375 ft | 5 kts | 302° |
| 2026-04-30 18:54 | 54.28508 | 48.23544 | 375 ft | 0 kts | 302° |